Atkins, IA

3:28 AM CDT on May 27, 2015 (GMT -0500)
Vinton-Veterans Memorial | | Change Station
CLOSE
Current Station
Airport
Location: Vinton,
Elevation: 846 ft
Nearby Weather Stations

Elev 846 ft 42.22 °N, 92.03 °W | Updated 13 minutes ago

Mostly Cloudy
Mostly Cloudy
60 °F
Feels Like 60 °F
N
9
Wind Variable Wind from NW

Today
High -- | Low -- °F
--% Chance of Precip.
Yesterday
High -- | Low -- °F
Precip. -- in
5:37 AM 8:32 PM
Waxing Gibbous, 65% visible
Pressure 29.86 in
Visibility 10.0 miles
Clouds Scattered Clouds 2200 ft
Mostly Cloudy 2800 ft
Overcast 4600 ft
Dew Point 57 °F
Humidity 88%
Rainfall 0.00 in
Snow Depth Not available.
UV 0 out of 12
Pollen 6.10 out of 12
Air Quality Not available.
Flu Activity Sporadic
METAR KVTI 270815Z AUTO 31008KT 10SM SCT022 BKN028 OVC046 16/14 A2986 RMK AO2 T01570138

More Conditions Fewer Conditions

Pressure 29.86 in
Visibility 10.0 miles
Clouds Scattered Clouds 2200 ft
Mostly Cloudy 2800 ft
Overcast 4600 ft
Dew Point 57 °F
Humidity 88%
Rainfall 0.00 in
Snow Depth Not available.
UV 0 out of 12
Pollen 6.10 out of 12
Air Quality Not available.
Flu Activity Sporadic
METAR KVTI 270815Z AUTO 31008KT 10SM SCT022 BKN028 OVC046 16/14 A2986 RMK AO2 T01570138

More Conditions Fewer Conditions

10-Day Weather Forecast

Almanac

Astronomy

May. 27, 2015 Rise Set
Actual Time
Civil Twilight
Nautical Twilight
Astronomical Twilight
Moon
Length of Visible Light
Length of Day
Tomorrow will be .
, % of the Moon is Illuminated

Today's Extremes

State Highs State Lows

Community

WunderPhotos

Upload Photos

1,824,634 photos uploaded!

WunderBlogs® & News

Nearby

Air Quality

  Air Quality AQ Index Pollutant
Not available.

Snow Depth

Station Depth Elevation

Earthquake Activity

City Distance Mag. Time & Date
Minimum magnitude displayed is 2.5.

Coastal Water Temperatures

Place Temperature

Stations

Nearby Weather Stations

Station Location Temp. Windchill Dew Point Humidity Wind Precip. Elev Updated Type